sensor_id;sensor_type;location;lat;lon;timestamp;temperature;humidity
27506;DHT22;14939;43.596;1.320;2023-09-19T00:01:07;17.00;85.10
27506;DHT22;14939;43.596;1.320;2023-09-19T00:03:37;17.00;85.30
27506;DHT22;14939;43.596;1.320;2023-09-19T00:06:03;17.00;85.20
27506;DHT22;14939;43.596;1.320;2023-09-19T00:08:30;17.00;85.80
27506;DHT22;14939;43.596;1.320;2023-09-19T00:10:56;17.00;86.10
27506;DHT22;14939;43.596;1.320;2023-09-19T00:13:24;16.90;86.50
27506;DHT22;14939;43.596;1.320;2023-09-19T00:15:50;16.90;86.60
27506;DHT22;14939;43.596;1.320;2023-09-19T00:18:17;16.90;86.90
27506;DHT22;14939;43.596;1.320;2023-09-19T00:20:44;16.90;87.70
27506;DHT22;14939;43.596;1.320;2023-09-19T00:23:13;16.70;88.90
27506;DHT22;14939;43.596;1.320;2023-09-19T00:25:39;16.70;89.40
27506;DHT22;14939;43.596;1.320;2023-09-19T00:28:05;16.60;90.00
27506;DHT22;14939;43.596;1.320;2023-09-19T00:30:33;16.60;90.40
27506;DHT22;14939;43.596;1.320;2023-09-19T00:32:58;16.50;90.70
27506;DHT22;14939;43.596;1.320;2023-09-19T00:35:24;16.30;91.10
27506;DHT22;14939;43.596;1.320;2023-09-19T00:37:51;16.30;91.50
27506;DHT22;14939;43.596;1.320;2023-09-19T00:40:17;16.30;91.90
27506;DHT22;14939;43.596;1.320;2023-09-19T00:42:47;16.30;92.10
27506;DHT22;14939;43.596;1.320;2023-09-19T00:45:14;16.20;92.20
27506;DHT22;14939;43.596;1.320;2023-09-19T00:47:49;16.10;92.30
27506;DHT22;14939;43.596;1.320;2023-09-19T00:50:17;16.10;92.80
27506;DHT22;14939;43.596;1.320;2023-09-19T00:52:46;16.00;93.00
27506;DHT22;14939;43.596;1.320;2023-09-19T00:55:15;16.10;93.40
27506;DHT22;14939;43.596;1.320;2023-09-19T00:57:42;16.00;93.20
27506;DHT22;14939;43.596;1.320;2023-09-19T01:00:10;16.00;93.60
27506;DHT22;14939;43.596;1.320;2023-09-19T01:02:41;15.90;94.00
27506;DHT22;14939;43.596;1.320;2023-09-19T01:05:08;15.90;94.00
27506;DHT22;14939;43.596;1.320;2023-09-19T01:07:35;15.80;94.50
27506;DHT22;14939;43.596;1.320;2023-09-19T01:10:04;15.80;94.60
27506;DHT22;14939;43.596;1.320;2023-09-19T01:16:09;15.80;94.60
27506;DHT22;14939;43.596;1.320;2023-09-19T01:21:42;15.70;95.40
27506;DHT22;14939;43.596;1.320;2023-09-19T01:29:50;15.80;95.30
27506;DHT22;14939;43.596;1.320;2023-09-19T01:32:18;15.80;95.60
27506;DHT22;14939;43.596;1.320;2023-09-19T01:37:17;15.70;96.10
27506;DHT22;14939;43.596;1.320;2023-09-19T01:39:47;15.50;96.00
27506;DHT22;14939;43.596;1.320;2023-09-19T01:42:22;15.80;95.60
27506;DHT22;14939;43.596;1.320;2023-09-19T01:47:49;15.80;95.50
27506;DHT22;14939;43.596;1.320;2023-09-19T01:50:42;15.90;95.30
27506;DHT22;14939;43.596;1.320;2023-09-19T01:53:29;15.90;95.50
27506;DHT22;14939;43.596;1.320;2023-09-19T01:55:57;15.90;95.60
27506;DHT22;14939;43.596;1.320;2023-09-19T01:58:46;15.90;95.40
27506;DHT22;14939;43.596;1.320;2023-09-19T02:01:17;15.80;95.90
27506;DHT22;14939;43.596;1.320;2023-09-19T02:03:46;15.70;95.90
27506;DHT22;14939;43.596;1.320;2023-09-19T02:06:16;15.80;96.20
27506;DHT22;14939;43.596;1.320;2023-09-19T02:08:42;15.70;95.80
27506;DHT22;14939;43.596;1.320;2023-09-19T02:11:08;15.70;96.00
27506;DHT22;14939;43.596;1.320;2023-09-19T02:13:34;15.70;96.40
27506;DHT22;14939;43.596;1.320;2023-09-19T02:16:00;15.70;95.80
27506;DHT22;14939;43.596;1.320;2023-09-19T02:18:25;15.70;95.90
27506;DHT22;14939;43.596;1.320;2023-09-19T02:20:53;15.70;96.10
27506;DHT22;14939;43.596;1.320;2023-09-19T02:23:20;15.70;95.90
27506;DHT22;14939;43.596;1.320;2023-09-19T02:25:56;15.70;96.20
27506;DHT22;14939;43.596;1.320;2023-09-19T02:28:29;15.70;96.30
27506;DHT22;14939;43.596;1.320;2023-09-19T02:30:58;15.60;96.50
27506;DHT22;14939;43.596;1.320;2023-09-19T02:33:24;15.50;96.60
27506;DHT22;14939;43.596;1.320;2023-09-19T02:35:54;15.50;96.80
27506;DHT22;14939;43.596;1.320;2023-09-19T02:38:20;15.50;96.60
27506;DHT22;14939;43.596;1.320;2023-09-19T02:40:50;15.40;97.10
27506;DHT22;14939;43.596;1.320;2023-09-19T02:43:16;15.40;97.50
27506;DHT22;14939;43.596;1.320;2023-09-19T02:45:42;15.50;97.20
27506;DHT22;14939;43.596;1.320;2023-09-19T02:48:08;15.60;96.90
27506;DHT22;14939;43.596;1.320;2023-09-19T02:50:34;15.60;97.00
27506;DHT22;14939;43.596;1.320;2023-09-19T02:53:00;15.60;96.90
27506;DHT22;14939;43.596;1.320;2023-09-19T02:55:26;15.60;96.70
27506;DHT22;14939;43.596;1.320;2023-09-19T02:57:53;15.70;96.40
27506;DHT22;14939;43.596;1.320;2023-09-19T03:00:22;15.60;96.30
27506;DHT22;14939;43.596;1.320;2023-09-19T03:02:54;15.70;96.20
27506;DHT22;14939;43.596;1.320;2023-09-19T03:05:21;15.70;96.00
27506;DHT22;14939;43.596;1.320;2023-09-19T03:07:47;15.80;95.80
27506;DHT22;14939;43.596;1.320;2023-09-19T03:10:20;15.90;95.60
27506;DHT22;14939;43.596;1.320;2023-09-19T03:12:46;15.90;95.30
27506;DHT22;14939;43.596;1.320;2023-09-19T03:15:13;15.90;95.20
27506;DHT22;14939;43.596;1.320;2023-09-19T03:17:43;15.90;95.00
27506;DHT22;14939;43.596;1.320;2023-09-19T03:20:09;15.90;94.90
27506;DHT22;14939;43.596;1.320;2023-09-19T03:22:37;16.00;94.80
27506;DHT22;14939;43.596;1.320;2023-09-19T03:25:04;16.00;94.60
27506;DHT22;14939;43.596;1.320;2023-09-19T03:27:34;16.00;94.70
27506;DHT22;14939;43.596;1.320;2023-09-19T03:30:00;16.00;94.50
27506;DHT22;14939;43.596;1.320;2023-09-19T03:32:26;16.00;94.40
27506;DHT22;14939;43.596;1.320;2023-09-19T03:34:52;16.10;94.40
27506;DHT22;14939;43.596;1.320;2023-09-19T03:37:17;16.10;94.30
27506;DHT22;14939;43.596;1.320;2023-09-19T03:39:43;16.10;94.30
27506;DHT22;14939;43.596;1.320;2023-09-19T03:42:09;16.00;94.50
27506;DHT22;14939;43.596;1.320;2023-09-19T03:44:35;15.90;94.70
27506;DHT22;14939;43.596;1.320;2023-09-19T03:47:01;15.90;95.10
27506;DHT22;14939;43.596;1.320;2023-09-19T03:49:26;15.80;95.30
27506;DHT22;14939;43.596;1.320;2023-09-19T03:51:52;15.80;95.10
27506;DHT22;14939;43.596;1.320;2023-09-19T03:54:18;15.80;95.30
27506;DHT22;14939;43.596;1.320;2023-09-19T03:56:44;15.80;94.90
27506;DHT22;14939;43.596;1.320;2023-09-19T03:59:11;15.80;95.10
27506;DHT22;14939;43.596;1.320;2023-09-19T04:01:37;15.70;95.20
27506;DHT22;14939;43.596;1.320;2023-09-19T04:04:03;15.70;95.40
27506;DHT22;14939;43.596;1.320;2023-09-19T04:06:35;15.70;95.30
27506;DHT22;14939;43.596;1.320;2023-09-19T04:09:04;15.70;95.20
27506;DHT22;14939;43.596;1.320;2023-09-19T04:11:32;15.80;95.40
27506;DHT22;14939;43.596;1.320;2023-09-19T04:13:58;15.70;95.20
27506;DHT22;14939;43.596;1.320;2023-09-19T04:16:24;15.70;95.30
27506;DHT22;14939;43.596;1.320;2023-09-19T04:18:50;15.70;95.30
27506;DHT22;14939;43.596;1.320;2023-09-19T04:21:16;15.70;95.30
27506;DHT22;14939;43.596;1.320;2023-09-19T04:23:42;15.70;95.40
27506;DHT22;14939;43.596;1.320;2023-09-19T04:26:08;15.60;95.50
27506;DHT22;14939;43.596;1.320;2023-09-19T04:28:34;15.70;95.60
27506;DHT22;14939;43.596;1.320;2023-09-19T04:31:00;15.60;95.60
27506;DHT22;14939;43.596;1.320;2023-09-19T04:33:26;15.60;95.70
27506;DHT22;14939;43.596;1.320;2023-09-19T04:35:55;15.60;95.70
27506;DHT22;14939;43.596;1.320;2023-09-19T04:38:21;15.50;95.80
27506;DHT22;14939;43.596;1.320;2023-09-19T04:40:47;15.60;95.80
27506;DHT22;14939;43.596;1.320;2023-09-19T04:43:13;15.50;95.90
27506;DHT22;14939;43.596;1.320;2023-09-19T04:45:39;15.50;95.80
27506;DHT22;14939;43.596;1.320;2023-09-19T04:48:05;15.50;95.80
27506;DHT22;14939;43.596;1.320;2023-09-19T04:50:34;15.50;96.10
27506;DHT22;14939;43.596;1.320;2023-09-19T04:53:00;15.50;96.10
27506;DHT22;14939;43.596;1.320;2023-09-19T04:55:26;15.50;96.00
27506;DHT22;14939;43.596;1.320;2023-09-19T04:57:53;15.60;95.90
27506;DHT22;14939;43.596;1.320;2023-09-19T05:00:23;15.60;96.00
27506;DHT22;14939;43.596;1.320;2023-09-19T05:02:55;15.50;96.40
27506;DHT22;14939;43.596;1.320;2023-09-19T05:05:22;15.50;96.50
27506;DHT22;14939;43.596;1.320;2023-09-19T05:07:49;15.60;96.60
27506;DHT22;14939;43.596;1.320;2023-09-19T05:10:15;15.50;96.50
27506;DHT22;14939;43.596;1.320;2023-09-19T05:12:44;15.60;96.50
27506;DHT22;14939;43.596;1.320;2023-09-19T05:15:14;15.60;96.70
27506;DHT22;14939;43.596;1.320;2023-09-19T05:17:40;15.50;96.70
27506;DHT22;14939;43.596;1.320;2023-09-19T05:20:06;15.50;96.80
27506;DHT22;14939;43.596;1.320;2023-09-19T05:22:42;15.50;97.00
27506;DHT22;14939;43.596;1.320;2023-09-19T05:25:11;15.40;97.60
27506;DHT22;14939;43.596;1.320;2023-09-19T05:27:42;15.30;97.70
27506;DHT22;14939;43.596;1.320;2023-09-19T05:30:08;15.30;97.90
27506;DHT22;14939;43.596;1.320;2023-09-19T05:32:34;15.30;97.90
27506;DHT22;14939;43.596;1.320;2023-09-19T05:34:59;15.20;98.10
27506;DHT22;14939;43.596;1.320;2023-09-19T05:37:25;15.30;98.20
27506;DHT22;14939;43.596;1.320;2023-09-19T05:39:51;15.30;98.30
27506;DHT22;14939;43.596;1.320;2023-09-19T05:42:19;15.30;98.30
27506;DHT22;14939;43.596;1.320;2023-09-19T05:44:45;15.30;98.30
27506;DHT22;14939;43.596;1.320;2023-09-19T05:47:10;15.20;98.40
27506;DHT22;14939;43.596;1.320;2023-09-19T05:49:36;15.20;98.40
27506;DHT22;14939;43.596;1.320;2023-09-19T05:52:08;15.20;98.60
27506;DHT22;14939;43.596;1.320;2023-09-19T05:54:33;15.20;98.30
27506;DHT22;14939;43.596;1.320;2023-09-19T05:57:00;15.20;98.40
27506;DHT22;14939;43.596;1.320;2023-09-19T05:59:27;15.10;98.40
27506;DHT22;14939;43.596;1.320;2023-09-19T06:01:53;15.10;98.40
27506;DHT22;14939;43.596;1.320;2023-09-19T06:04:18;15.10;98.40
27506;DHT22;14939;43.596;1.320;2023-09-19T06:06:47;15.10;98.60
27506;DHT22;14939;43.596;1.320;2023-09-19T06:09:14;15.10;98.90
27506;DHT22;14939;43.596;1.320;2023-09-19T06:11:41;15.20;98.70
27506;DHT22;14939;43.596;1.320;2023-09-19T06:14:07;15.20;98.80
27506;DHT22;14939;43.596;1.320;2023-09-19T06:16:33;15.20;98.40
27506;DHT22;14939;43.596;1.320;2023-09-19T06:18:58;15.20;98.10
27506;DHT22;14939;43.596;1.320;2023-09-19T06:21:26;15.30;98.40
27506;DHT22;14939;43.596;1.320;2023-09-19T06:23:53;15.30;98.40
27506;DHT22;14939;43.596;1.320;2023-09-19T06:26:18;15.30;98.10
27506;DHT22;14939;43.596;1.320;2023-09-19T06:28:44;15.30;98.00
27506;DHT22;14939;43.596;1.320;2023-09-19T06:31:10;15.40;98.20
27506;DHT22;14939;43.596;1.320;2023-09-19T06:33:37;15.40;97.60
27506;DHT22;14939;43.596;1.320;2023-09-19T06:36:07;15.50;97.60
27506;DHT22;14939;43.596;1.320;2023-09-19T06:38:33;15.60;97.30
27506;DHT22;14939;43.596;1.320;2023-09-19T06:41:03;15.60;97.20
27506;DHT22;14939;43.596;1.320;2023-09-19T06:43:32;15.70;97.20
27506;DHT22;14939;43.596;1.320;2023-09-19T06:46:02;15.70;97.20
27506;DHT22;14939;43.596;1.320;2023-09-19T06:48:28;15.80;97.20
27506;DHT22;14939;43.596;1.320;2023-09-19T06:50:59;15.80;96.90
27506;DHT22;14939;43.596;1.320;2023-09-19T06:53:30;15.90;96.10
27506;DHT22;14939;43.596;1.320;2023-09-19T06:55:57;16.00;96.20
27506;DHT22;14939;43.596;1.320;2023-09-19T06:58:23;16.00;96.10
27506;DHT22;14939;43.596;1.320;2023-09-19T07:00:49;16.10;95.80
27506;DHT22;14939;43.596;1.320;2023-09-19T07:03:15;16.10;95.80
27506;DHT22;14939;43.596;1.320;2023-09-19T07:05:44;16.00;95.70
27506;DHT22;14939;43.596;1.320;2023-09-19T07:08:10;16.00;95.40
27506;DHT22;14939;43.596;1.320;2023-09-19T07:10:38;16.00;95.60
27506;DHT22;14939;43.596;1.320;2023-09-19T07:13:08;16.10;95.40
27506;DHT22;14939;43.596;1.320;2023-09-19T07:15:37;16.00;95.40
27506;DHT22;14939;43.596;1.320;2023-09-19T07:18:15;16.10;95.70
27506;DHT22;14939;43.596;1.320;2023-09-19T07:20:42;16.10;95.50
27506;DHT22;14939;43.596;1.320;2023-09-19T07:23:15;16.20;95.30
27506;DHT22;14939;43.596;1.320;2023-09-19T07:25:41;16.30;95.00
27506;DHT22;14939;43.596;1.320;2023-09-19T07:28:06;16.40;94.70
27506;DHT22;14939;43.596;1.320;2023-09-19T07:30:35;16.60;94.70
27506;DHT22;14939;43.596;1.320;2023-09-19T07:33:02;16.70;94.70
27506;DHT22;14939;43.596;1.320;2023-09-19T07:35:29;16.70;94.50
27506;DHT22;14939;43.596;1.320;2023-09-19T07:37:55;16.90;94.20
27506;DHT22;14939;43.596;1.320;2023-09-19T07:40:21;16.90;94.00
27506;DHT22;14939;43.596;1.320;2023-09-19T07:42:49;17.00;94.00
27506;DHT22;14939;43.596;1.320;2023-09-19T07:45:16;17.00;93.80
27506;DHT22;14939;43.596;1.320;2023-09-19T07:47:46;17.10;94.10
27506;DHT22;14939;43.596;1.320;2023-09-19T07:50:13;17.30;94.30
27506;DHT22;14939;43.596;1.320;2023-09-19T07:52:38;17.50;94.10
27506;DHT22;14939;43.596;1.320;2023-09-19T07:55:08;17.60;93.60
27506;DHT22;14939;43.596;1.320;2023-09-19T07:57:35;17.70;93.50
27506;DHT22;14939;43.596;1.320;2023-09-19T08:00:01;17.80;93.70
27506;DHT22;14939;43.596;1.320;2023-09-19T08:02:33;17.90;93.80
27506;DHT22;14939;43.596;1.320;2023-09-19T08:04:59;18.10;94.00
27506;DHT22;14939;43.596;1.320;2023-09-19T08:07:26;18.20;93.30
27506;DHT22;14939;43.596;1.320;2023-09-19T08:09:51;18.20;93.40
27506;DHT22;14939;43.596;1.320;2023-09-19T08:12:17;18.30;93.50
27506;DHT22;14939;43.596;1.320;2023-09-19T08:14:43;18.30;93.20
27506;DHT22;14939;43.596;1.320;2023-09-19T08:17:08;18.30;93.00
27506;DHT22;14939;43.596;1.320;2023-09-19T08:19:34;18.40;92.80
27506;DHT22;14939;43.596;1.320;2023-09-19T08:22:00;18.50;92.50
27506;DHT22;14939;43.596;1.320;2023-09-19T08:24:29;18.60;92.60
27506;DHT22;14939;43.596;1.320;2023-09-19T08:26:56;18.80;92.00
27506;DHT22;14939;43.596;1.320;2023-09-19T08:29:23;19.10;91.70
27506;DHT22;14939;43.596;1.320;2023-09-19T08:31:56;19.50;90.70
27506;DHT22;14939;43.596;1.320;2023-09-19T08:34:23;19.80;89.00
27506;DHT22;14939;43.596;1.320;2023-09-19T08:36:53;20.00;88.90
27506;DHT22;14939;43.596;1.320;2023-09-19T08:39:25;20.00;86.30
27506;DHT22;14939;43.596;1.320;2023-09-19T08:41:58;20.10;87.80
27506;DHT22;14939;43.596;1.320;2023-09-19T08:44:27;20.00;86.10
27506;DHT22;14939;43.596;1.320;2023-09-19T08:47:11;20.00;86.20
27506;DHT22;14939;43.596;1.320;2023-09-19T08:50:04;20.10;85.90
27506;DHT22;14939;43.596;1.320;2023-09-19T08:52:42;20.30;84.10
27506;DHT22;14939;43.596;1.320;2023-09-19T08:55:12;20.50;82.60
27506;DHT22;14939;43.596;1.320;2023-09-19T08:57:38;20.50;82.50
27506;DHT22;14939;43.596;1.320;2023-09-19T09:00:07;20.90;82.00
27506;DHT22;14939;43.596;1.320;2023-09-19T09:02:39;20.90;79.30
27506;DHT22;14939;43.596;1.320;2023-09-19T09:05:11;21.00;78.70
27506;DHT22;14939;43.596;1.320;2023-09-19T09:07:43;21.10;79.50
27506;DHT22;14939;43.596;1.320;2023-09-19T09:10:09;21.10;78.30
27506;DHT22;14939;43.596;1.320;2023-09-19T09:12:35;21.00;79.20
27506;DHT22;14939;43.596;1.320;2023-09-19T09:15:03;21.00;79.80
27506;DHT22;14939;43.596;1.320;2023-09-19T09:17:29;21.10;77.60
27506;DHT22;14939;43.596;1.320;2023-09-19T09:19:56;21.00;77.60
27506;DHT22;14939;43.596;1.320;2023-09-19T09:22:22;21.00;77.50
27506;DHT22;14939;43.596;1.320;2023-09-19T09:27:23;20.80;78.30
27506;DHT22;14939;43.596;1.320;2023-09-19T09:29:50;20.70;78.20
27506;DHT22;14939;43.596;1.320;2023-09-19T09:32:24;20.60;79.50
27506;DHT22;14939;43.596;1.320;2023-09-19T09:34:58;20.50;78.80
27506;DHT22;14939;43.596;1.320;2023-09-19T09:37:25;20.50;79.70
27506;DHT22;14939;43.596;1.320;2023-09-19T09:39:58;20.60;77.50
27506;DHT22;14939;43.596;1.320;2023-09-19T09:42:36;20.70;77.10
27506;DHT22;14939;43.596;1.320;2023-09-19T09:47:47;20.80;75.10
27506;DHT22;14939;43.596;1.320;2023-09-19T09:50:36;21.00;73.20
27506;DHT22;14939;43.596;1.320;2023-09-19T09:53:29;21.00;72.30
27506;DHT22;14939;43.596;1.320;2023-09-19T09:56:04;21.00;73.00
27506;DHT22;14939;43.596;1.320;2023-09-19T09:58:50;21.20;72.50
27506;DHT22;14939;43.596;1.320;2023-09-19T10:01:21;21.10;71.90
27506;DHT22;14939;43.596;1.320;2023-09-19T10:03:57;21.00;73.80
27506;DHT22;14939;43.596;1.320;2023-09-19T10:06:23;21.00;76.30
27506;DHT22;14939;43.596;1.320;2023-09-19T10:09:09;21.00;73.20
27506;DHT22;14939;43.596;1.320;2023-09-19T10:11:44;21.10;71.60
27506;DHT22;14939;43.596;1.320;2023-09-19T10:14:12;21.10;71.80
27506;DHT22;14939;43.596;1.320;2023-09-19T10:16:47;21.30;70.00
27506;DHT22;14939;43.596;1.320;2023-09-19T10:19:21;21.30;67.40
27506;DHT22;14939;43.596;1.320;2023-09-19T10:21:50;21.50;65.80
27506;DHT22;14939;43.596;1.320;2023-09-19T10:24:19;21.70;63.80
27506;DHT22;14939;43.596;1.320;2023-09-19T10:26:46;21.60;63.40
27506;DHT22;14939;43.596;1.320;2023-09-19T10:29:17;21.40;63.70
27506;DHT22;14939;43.596;1.320;2023-09-19T10:31:44;21.30;63.60
27506;DHT22;14939;43.596;1.320;2023-09-19T10:34:14;21.30;63.60
27506;DHT22;14939;43.596;1.320;2023-09-19T10:36:44;21.50;63.70
27506;DHT22;14939;43.596;1.320;2023-09-19T10:39:14;21.70;58.70
27506;DHT22;14939;43.596;1.320;2023-09-19T10:41:50;21.80;57.70
27506;DHT22;14939;43.596;1.320;2023-09-19T10:44:23;21.90;55.70
27506;DHT22;14939;43.596;1.320;2023-09-19T10:46:51;22.00;56.20
27506;DHT22;14939;43.596;1.320;2023-09-19T10:49:18;22.40;56.50
27506;DHT22;14939;43.596;1.320;2023-09-19T10:51:45;22.90;55.90
27506;DHT22;14939;43.596;1.320;2023-09-19T10:54:16;23.00;54.50
27506;DHT22;14939;43.596;1.320;2023-09-19T10:56:46;23.20;53.20
27506;DHT22;14939;43.596;1.320;2023-09-19T10:59:21;23.10;52.70
27506;DHT22;14939;43.596;1.320;2023-09-19T11:01:53;22.70;52.90
27506;DHT22;14939;43.596;1.320;2023-09-19T11:04:29;22.60;55.90
27506;DHT22;14939;43.596;1.320;2023-09-19T11:07:14;22.40;54.10
27506;DHT22;14939;43.596;1.320;2023-09-19T11:14:58;22.40;51.10
27506;DHT22;14939;43.596;1.320;2023-09-19T11:17:34;22.50;51.30
27506;DHT22;14939;43.596;1.320;2023-09-19T11:30:41;22.90;48.50
27506;DHT22;14939;43.596;1.320;2023-09-19T11:36:15;23.10;49.30
27506;DHT22;14939;43.596;1.320;2023-09-19T11:43:48;23.20;49.70
27506;DHT22;14939;43.596;1.320;2023-09-19T11:46:16;23.50;47.30
27506;DHT22;14939;43.596;1.320;2023-09-19T11:48:48;23.60;47.80
27506;DHT22;14939;43.596;1.320;2023-09-19T11:51:16;23.60;46.20
27506;DHT22;14939;43.596;1.320;2023-09-19T11:53:48;23.60;46.20
27506;DHT22;14939;43.596;1.320;2023-09-19T11:56:18;23.60;45.90
27506;DHT22;14939;43.596;1.320;2023-09-19T11:58:46;23.50;46.70
27506;DHT22;14939;43.596;1.320;2023-09-19T12:01:19;23.40;45.50
27506;DHT22;14939;43.596;1.320;2023-09-19T12:03:47;23.30;48.10
27506;DHT22;14939;43.596;1.320;2023-09-19T12:06:16;23.40;49.10
27506;DHT22;14939;43.596;1.320;2023-09-19T12:08:43;23.50;47.80
27506;DHT22;14939;43.596;1.320;2023-09-19T12:11:15;23.40;47.90
27506;DHT22;14939;43.596;1.320;2023-09-19T12:13:45;23.40;46.20
27506;DHT22;14939;43.596;1.320;2023-09-19T12:16:16;23.40;45.60
27506;DHT22;14939;43.596;1.320;2023-09-19T12:18:44;23.40;45.40
27506;DHT22;14939;43.596;1.320;2023-09-19T12:24:17;23.00;45.20
27506;DHT22;14939;43.596;1.320;2023-09-19T12:26:45;22.90;43.70
27506;DHT22;14939;43.596;1.320;2023-09-19T12:29:21;22.80;45.00
27506;DHT22;14939;43.596;1.320;2023-09-19T12:31:54;23.30;44.00
27506;DHT22;14939;43.596;1.320;2023-09-19T12:34:24;23.40;44.80
27506;DHT22;14939;43.596;1.320;2023-09-19T12:39:31;23.80;42.20
27506;DHT22;14939;43.596;1.320;2023-09-19T12:41:57;23.90;42.60
27506;DHT22;14939;43.596;1.320;2023-09-19T12:44:24;23.90;43.80
27506;DHT22;14939;43.596;1.320;2023-09-19T12:46:50;23.80;43.70
27506;DHT22;14939;43.596;1.320;2023-09-19T12:49:19;23.90;45.20
27506;DHT22;14939;43.596;1.320;2023-09-19T12:51:49;24.00;44.40
27506;DHT22;14939;43.596;1.320;2023-09-19T12:54:15;24.10;42.30
27506;DHT22;14939;43.596;1.320;2023-09-19T12:56:43;24.20;41.70
27506;DHT22;14939;43.596;1.320;2023-09-19T12:59:14;24.20;40.50
27506;DHT22;14939;43.596;1.320;2023-09-19T13:01:43;24.00;38.50
27506;DHT22;14939;43.596;1.320;2023-09-19T13:04:15;23.80;36.80
27506;DHT22;14939;43.596;1.320;2023-09-19T13:06:50;24.00;37.50
27506;DHT22;14939;43.596;1.320;2023-09-19T13:09:21;24.00;37.90
27506;DHT22;14939;43.596;1.320;2023-09-19T13:11:47;24.00;39.00
27506;DHT22;14939;43.596;1.320;2023-09-19T13:14:25;24.20;39.40
27506;DHT22;14939;43.596;1.320;2023-09-19T13:17:09;24.00;37.90
27506;DHT22;14939;43.596;1.320;2023-09-19T13:19:55;23.90;39.30
27506;DHT22;14939;43.596;1.320;2023-09-19T13:22:44;23.90;38.30
27506;DHT22;14939;43.596;1.320;2023-09-19T13:25:20;24.00;42.20
27506;DHT22;14939;43.596;1.320;2023-09-19T13:27:51;24.10;41.10
27506;DHT22;14939;43.596;1.320;2023-09-19T13:30:18;24.30;41.20
27506;DHT22;14939;43.596;1.320;2023-09-19T13:32:44;24.30;38.50
27506;DHT22;14939;43.596;1.320;2023-09-19T13:35:12;24.30;37.40
27506;DHT22;14939;43.596;1.320;2023-09-19T13:37:39;24.20;37.20
27506;DHT22;14939;43.596;1.320;2023-09-19T13:40:13;24.30;36.30
27506;DHT22;14939;43.596;1.320;2023-09-19T13:42:40;24.40;33.30
27506;DHT22;14939;43.596;1.320;2023-09-19T13:45:07;24.30;32.60
27506;DHT22;14939;43.596;1.320;2023-09-19T13:47:33;24.20;36.00
27506;DHT22;14939;43.596;1.320;2023-09-19T13:50:01;24.20;36.00
27506;DHT22;14939;43.596;1.320;2023-09-19T13:52:28;24.30;36.10
27506;DHT22;14939;43.596;1.320;2023-09-19T13:54:56;24.20;36.50
27506;DHT22;14939;43.596;1.320;2023-09-19T13:57:22;24.20;38.00
27506;DHT22;14939;43.596;1.320;2023-09-19T13:59:49;24.30;36.90
27506;DHT22;14939;43.596;1.320;2023-09-19T14:02:15;24.30;36.60
27506;DHT22;14939;43.596;1.320;2023-09-19T14:04:44;24.30;38.10
27506;DHT22;14939;43.596;1.320;2023-09-19T14:07:09;24.30;38.20
27506;DHT22;14939;43.596;1.320;2023-09-19T14:09:36;24.30;37.40
27506;DHT22;14939;43.596;1.320;2023-09-19T14:12:02;24.40;38.30
27506;DHT22;14939;43.596;1.320;2023-09-19T14:14:28;24.40;39.90
27506;DHT22;14939;43.596;1.320;2023-09-19T14:16:54;24.50;37.00
27506;DHT22;14939;43.596;1.320;2023-09-19T14:19:20;24.50;36.20
27506;DHT22;14939;43.596;1.320;2023-09-19T14:21:46;24.60;36.40
27506;DHT22;14939;43.596;1.320;2023-09-19T14:24:16;24.60;36.20
27506;DHT22;14939;43.596;1.320;2023-09-19T14:26:43;24.60;34.90
27506;DHT22;14939;43.596;1.320;2023-09-19T14:29:08;24.60;35.20
27506;DHT22;14939;43.596;1.320;2023-09-19T14:31:37;24.60;35.80
27506;DHT22;14939;43.596;1.320;2023-09-19T14:34:03;24.60;34.50
27506;DHT22;14939;43.596;1.320;2023-09-19T14:36:30;24.40;34.40
27506;DHT22;14939;43.596;1.320;2023-09-19T14:38:56;24.60;33.70
27506;DHT22;14939;43.596;1.320;2023-09-19T14:41:25;24.80;35.50
27506;DHT22;14939;43.596;1.320;2023-09-19T14:43:52;25.10;33.00
27506;DHT22;14939;43.596;1.320;2023-09-19T14:46:18;25.10;32.40
27506;DHT22;14939;43.596;1.320;2023-09-19T14:48:45;25.50;32.20
27506;DHT22;14939;43.596;1.320;2023-09-19T14:51:13;25.60;30.50
27506;DHT22;14939;43.596;1.320;2023-09-19T14:53:40;25.80;30.40
27506;DHT22;14939;43.596;1.320;2023-09-19T14:56:10;26.00;30.10
27506;DHT22;14939;43.596;1.320;2023-09-19T14:58:37;27.10;28.50
27506;DHT22;14939;43.596;1.320;2023-09-19T15:01:08;27.40;27.10
27506;DHT22;14939;43.596;1.320;2023-09-19T15:03:34;27.40;25.70
27506;DHT22;14939;43.596;1.320;2023-09-19T15:06:03;27.80;24.10
27506;DHT22;14939;43.596;1.320;2023-09-19T15:08:30;28.40;24.20
27506;DHT22;14939;43.596;1.320;2023-09-19T15:10:56;28.60;22.70
27506;DHT22;14939;43.596;1.320;2023-09-19T15:13:24;29.10;23.20
27506;DHT22;14939;43.596;1.320;2023-09-19T15:15:59;28.80;22.90
27506;DHT22;14939;43.596;1.320;2023-09-19T15:18:25;29.10;24.50
27506;DHT22;14939;43.596;1.320;2023-09-19T15:20:50;29.70;23.70
27506;DHT22;14939;43.596;1.320;2023-09-19T15:23:16;30.40;22.80
27506;DHT22;14939;43.596;1.320;2023-09-19T15:25:52;31.40;20.90
27506;DHT22;14939;43.596;1.320;2023-09-19T15:28:18;31.50;18.40
27506;DHT22;14939;43.596;1.320;2023-09-19T15:30:48;31.80;18.40
27506;DHT22;14939;43.596;1.320;2023-09-19T15:33:14;32.00;16.80
27506;DHT22;14939;43.596;1.320;2023-09-19T15:35:40;31.50;16.10
27506;DHT22;14939;43.596;1.320;2023-09-19T15:38:06;31.90;17.10
27506;DHT22;14939;43.596;1.320;2023-09-19T15:40:33;33.20;14.60
27506;DHT22;14939;43.596;1.320;2023-09-19T15:42:58;33.10;13.10
27506;DHT22;14939;43.596;1.320;2023-09-19T15:45:25;33.00;12.40
27506;DHT22;14939;43.596;1.320;2023-09-19T15:47:51;32.60;12.50
27506;DHT22;14939;43.596;1.320;2023-09-19T15:50:17;32.10;13.40
27506;DHT22;14939;43.596;1.320;2023-09-19T15:52:44;32.10;13.70
27506;DHT22;14939;43.596;1.320;2023-09-19T15:55:09;32.20;12.90
27506;DHT22;14939;43.596;1.320;2023-09-19T15:57:37;32.40;12.60
27506;DHT22;14939;43.596;1.320;2023-09-19T16:00:03;32.00;13.60
27506;DHT22;14939;43.596;1.320;2023-09-19T16:02:35;32.40;13.80
27506;DHT22;14939;43.596;1.320;2023-09-19T16:05:01;32.60;13.40
27506;DHT22;14939;43.596;1.320;2023-09-19T16:07:29;32.40;13.40
27506;DHT22;14939;43.596;1.320;2023-09-19T16:09:55;32.20;13.50
27506;DHT22;14939;43.596;1.320;2023-09-19T16:12:21;31.80;13.90
27506;DHT22;14939;43.596;1.320;2023-09-19T16:14:46;31.50;13.60
27506;DHT22;14939;43.596;1.320;2023-09-19T16:17:12;31.20;14.60
27506;DHT22;14939;43.596;1.320;2023-09-19T16:19:37;31.20;14.60
27506;DHT22;14939;43.596;1.320;2023-09-19T16:22:03;30.50;14.40
27506;DHT22;14939;43.596;1.320;2023-09-19T16:24:29;30.40;18.60
27506;DHT22;14939;43.596;1.320;2023-09-19T16:26:54;30.70;15.10
27506;DHT22;14939;43.596;1.320;2023-09-19T16:29:20;30.30;15.60
27506;DHT22;14939;43.596;1.320;2023-09-19T16:31:49;30.30;15.50